Time;durP1;ratioP1;P1;durP2;ratioP2;P2;SDS_P1;SDS_P2;PMS_P1;PMS_P2;Temp;Humidity;BMP_temperature;BMP_pressure;BME280_temperature;BME280_humidity;BME280_pressure;Samples;Min_cycle;Max_cycle;Signal;HPM_P1;HPM_P2
2021/12/15 00:00:45;;;;;;;64.22;42.65;;;11.80;99.90;;;11.93;97.47;102725.63;5113690;28;20039;-76
2021/12/15 00:03:15;;;;;;;67.40;43.28;;;11.80;99.90;;;12.09;97.42;102744.56;5113655;28;20039;-76
2021/12/15 00:05:45;;;;;;;66.70;43.55;;;11.80;99.90;;;12.13;97.32;102745.50;5113414;28;20077;-76
2021/12/15 00:08:14;;;;;;;60.65;41.42;;;11.80;99.90;;;12.03;97.11;102707.28;5113742;28;20071;-76
2021/12/15 00:10:47;;;;;;;58.28;41.40;;;11.90;99.90;;;12.17;96.86;102752.66;5113598;28;20540;-75
2021/12/15 00:13:38;;;;;;;61.13;41.88;;;11.90;99.90;;;12.12;96.86;102734.00;4991096;28;20575;-76
2021/12/15 00:16:09;;;;;;;68.07;44.20;;;11.90;99.90;;;12.07;96.62;102727.72;4995251;28;20070;-76
2021/12/15 00:18:41;;;;;;;60.95;41.90;;;11.90;99.90;;;11.98;96.51;102713.38;4993625;28;20038;-77
2021/12/15 00:21:15;;;;;;;70.85;42.60;;;11.90;99.90;;;12.22;96.63;102745.66;4992606;28;20476;-76
2021/12/15 00:23:44;;;;;;;58.60;41.30;;;11.90;99.90;;;12.22;96.14;102741.25;4993554;28;20408;-76
2021/12/15 00:26:15;;;;;;;62.55;42.38;;;11.90;99.90;;;12.21;96.53;102743.91;4992526;28;20046;-75
2021/12/15 00:33:09;;;;;;;65.55;40.45;;;11.90;99.90;;;12.13;96.66;102746.41;4993587;28;20698;-76
2021/12/15 00:35:37;;;;;;;65.55;40.78;;;11.90;99.90;;;12.12;96.76;102738.38;4993738;28;20050;-76
2021/12/15 00:38:07;;;;;;;64.45;41.67;;;11.80;99.90;;;10.07;97.09;102376.53;4993355;28;20046;-76
2021/12/15 00:40:36;;;;;;;62.87;40.93;;;11.80;99.90;;;11.92;96.60;102686.75;4993695;28;20431;-76
2021/12/15 00:43:06;;;;;;;68.53;41.80;;;11.90;99.90;;;12.07;96.80;102727.72;5019151;22;20054;-68
2021/12/15 00:45:34;;;;;;;64.65;42.38;;;11.80;99.90;;;12.14;96.87;102734.91;5012733;28;20042;-77
2021/12/15 00:48:04;;;;;;;64.28;39.53;;;11.80;99.90;;;11.87;96.79;102693.69;5014809;28;20045;-77
2021/12/15 00:50:36;;;;;;;67.32;41.80;;;11.80;99.90;;;12.17;96.96;102736.75;5012982;28;20046;-76
2021/12/15 00:53:05;;;;;;;65.05;41.25;;;11.90;99.90;;;12.00;96.95;102725.78;5012981;28;20443;-76
2021/12/15 00:55:37;;;;;;;64.32;41.53;;;11.80;99.90;;;11.68;97.03;102681.84;5013739;28;20061;-77
2021/12/15 00:58:09;;;;;;;;;;;11.80;99.90;;;12.09;96.89;102741.91;5028542;28;20496;-77
2021/12/15 01:00:41;;;;;;;63.03;41.08;;;11.80;99.90;;;11.83;96.88;102700.69;5013179;28;19922;-77
2021/12/15 01:03:10;;;;;;;61.60;39.83;;;11.80;99.90;;;11.51;97.05;102630.22;5012854;28;20411;-76
2021/12/15 01:05:43;;;;;;;65.75;39.47;;;11.80;99.90;;;12.06;96.99;102727.69;5014042;28;20121;-77
2021/12/15 01:08:16;;;;;;;64.85;40.28;;;11.80;99.90;;;11.84;96.85;102693.66;5016894;28;20046;-74
2021/12/15 01:11:01;;;;;;;58.55;39.22;;;11.80;99.90;;;12.13;96.85;102738.44;5031963;28;20050;-74
2021/12/15 01:21:55;;;;;;;58.42;38.35;;;11.80;99.90;;;12.17;96.71;102732.34;4976020;28;20054;-77
2021/12/15 01:24:24;;;;;;;55.72;37.40;;;11.80;99.90;;;12.21;96.61;102731.53;4960137;28;20081;-77
2021/12/15 01:26:53;;;;;;;56.05;37.58;;;11.90;99.90;;;12.19;96.55;102735.91;4975798;28;20047;-77
2021/12/15 01:29:22;;;;;;;58.55;38.45;;;11.90;99.90;;;12.23;96.49;102739.50;4976099;28;20066;-77
2021/12/15 01:31:51;;;;;;;55.55;36.63;;;11.90;99.90;;;12.18;96.23;102734.09;4979239;28;20074;-78
2021/12/15 01:34:20;;;;;;;54.10;36.25;;;11.90;99.90;;;12.25;96.11;102745.75;4959453;28;20050;-77
2021/12/15 01:36:48;;;;;;;52.85;35.15;;;11.90;99.90;;;12.27;96.12;102741.38;4975724;28;20049;-77
2021/12/15 01:39:17;;;;;;;53.75;34.75;;;12.00;99.90;;;12.09;96.27;102720.69;4976715;28;20046;-77
2021/12/15 01:41:46;;;;;;;51.72;36.03;;;11.90;99.90;;;12.19;96.14;102735.00;4975631;28;20039;-77
2021/12/15 01:47:05;;;;;;;56.03;34.42;;;11.90;99.90;;;12.07;96.55;102748.03;4973991;28;20484;-75
2021/12/15 01:49:39;;;;;;;55.72;34.97;;;11.90;99.90;;;12.17;96.54;102755.31;4976854;28;20105;-78
2021/12/15 01:52:14;;;;;;;53.15;33.08;;;11.90;99.90;;;12.21;96.40;102754.50;4991762;28;20054;-77
2021/12/15 01:54:47;;;;;;;51.88;34.13;;;11.90;99.90;;;12.25;96.34;102761.66;4976760;28;20097;-77
2021/12/15 01:57:17;;;;;;;53.63;33.45;;;11.90;99.90;;;12.23;96.43;102753.66;4976712;28;20050;-77
2021/12/15 01:59:49;;;;;;;47.70;33.13;;;12.00;99.90;;;12.14;96.38;102747.28;4975401;28;20046;-77
2021/12/15 02:02:20;;;;;;;51.50;33.35;;;11.90;99.90;;;12.17;96.17;102764.19;4976383;28;20129;-77
2021/12/15 02:04:51;;;;;;;55.72;35.45;;;11.90;99.90;;;12.23;96.38;102764.25;4976800;28;20074;-78
2021/12/15 02:07:23;;;;;;;49.95;33.33;;;11.90;99.90;;;12.25;96.13;102754.56;4976933;28;20441;-78
2021/12/15 02:10:04;;;;;;;53.30;33.97;;;12.00;99.90;;;12.27;96.04;102767.91;4991347;28;20055;-77
2021/12/15 02:12:54;;;;;;;49.30;32.63;;;11.90;99.90;;;11.75;95.99;102683.75;4976504;28;20047;-77
2021/12/15 02:15:27;;;;;;;53.58;34.15;;;11.90;99.90;;;12.20;96.20;102769.53;4991257;28;20051;-77
2021/12/15 02:17:57;;;;;;;54.78;32.88;;;11.90;99.90;;;12.30;96.09;102770.59;4974641;28;20062;-78
2021/12/15 02:20:31;;;;;;;50.80;33.58;;;11.90;99.90;;;12.33;96.00;102770.66;4991296;28;20075;-77
2021/12/15 02:23:00;;;;;;;50.97;31.83;;;12.00;99.90;;;12.27;95.75;102766.09;4975791;28;20056;-77
2021/12/15 02:25:28;;;;;;;50.15;31.88;;;12.00;99.90;;;12.25;95.76;102772.28;4976349;28;20081;-79
2021/12/15 02:27:57;;;;;;;50.90;33.85;;;12.00;99.90;;;12.22;96.04;102777.50;4976061;28;20047;-78
2021/12/15 02:30:44;;;;;;;52.80;32.42;;;11.90;99.90;;;12.25;96.05;102780.25;4976056;28;20568;-78
2021/12/15 02:33:39;;;;;;;49.58;30.88;;;11.90;99.90;;;12.29;95.95;102775.00;4975765;28;20098;-78
2021/12/15 02:38:56;;;;;;;47.63;32.17;;;12.00;99.90;;;12.23;96.16;102768.69;4975666;28;20046;-77
2021/12/15 02:41:29;;;;;;;48.38;31.23;;;11.90;99.90;;;12.15;96.20;102759.69;4974561;28;20058;-77
2021/12/15 02:44:17;;;;;;;51.40;32.73;;;11.90;99.90;;;12.20;96.19;102774.84;4971344;28;20046;-75
2021/12/15 02:46:47;;;;;;;50.63;32.15;;;11.90;99.90;;;12.13;96.09;102750.81;4975807;28;20125;-74
2021/12/15 02:49:20;;;;;;;47.53;33.50;;;11.90;99.90;;;12.19;96.10;102773.06;4975505;28;20130;-76
2021/12/15 02:51:52;;;;;;;48.20;32.30;;;11.90;99.90;;;12.03;96.29;102746.19;4975341;28;20400;-76
2021/12/15 02:54:23;;;;;;;47.72;30.77;;;11.80;99.90;;;12.22;96.30;102773.09;4977163;28;20547;-76
2021/12/15 02:56:54;;;;;;;51.67;33.72;;;11.90;99.90;;;12.25;96.03;102766.97;4975257;28;20067;-77
2021/12/15 02:59:24;;;;;;;;;;;11.90;99.90;;;12.04;95.91;102732.06;4992694;28;20047;-76
2021/12/15 03:02:03;;;;;;;49.30;32.40;;;12.00;99.90;;;12.26;96.07;102771.41;4975209;28;19921;-77
2021/12/15 03:04:40;;;;;;;50.15;32.63;;;11.90;99.90;;;11.53;95.87;102647.94;4975435;28;20042;-76
2021/12/15 03:07:18;;;;;;;49.40;32.72;;;12.00;99.90;;;12.15;95.90;102770.31;4975022;28;20113;-77
2021/12/15 03:15:35;;;;;;;54.97;34.72;;;12.00;99.90;;;12.23;95.66;102764.25;4974968;28;20046;-77
2021/12/15 03:18:09;;;;;;;54.90;34.53;;;12.00;99.90;;;12.23;96.12;102777.53;4975170;28;20046;-76
2021/12/15 03:20:45;;;;;;;50.92;33.80;;;11.90;99.90;;;12.07;96.05;102754.25;4974854;28;20050;-77
2021/12/15 03:23:21;;;;;;;54.72;35.60;;;11.90;99.90;;;11.94;96.02;102722.13;4975104;28;20049;-78
2021/12/15 03:25:50;;;;;;;61.03;32.58;;;11.90;99.90;;;12.15;96.32;102759.69;4974691;28;20039;-76
2021/12/15 03:34:10;;;;;;;55.35;33.67;;;11.90;99.90;;;12.23;96.22;102779.31;4974631;28;20451;-77
2021/12/15 03:39:42;;;;;;;55.08;33.47;;;12.00;99.90;;;12.33;95.87;102783.94;4989726;28;20050;-76
2021/12/15 03:42:13;;;;;;;52.03;35.17;;;12.00;99.90;;;12.36;95.75;102783.97;4989424;28;20050;-76
2021/12/15 03:44:45;;;;;;;53.50;33.05;;;12.00;99.90;;;12.37;95.54;102783.09;4973491;28;20058;-76
2021/12/15 03:47:18;;;;;;;50.78;33.17;;;12.00;99.90;;;12.36;95.30;102766.31;4989654;28;20077;-76
2021/12/15 03:49:47;;;;;;;52.50;33.17;;;12.10;99.90;;;12.33;95.54;102770.66;4974670;28;20061;-77
2021/12/15 03:52:17;;;;;;;55.33;33.70;;;12.10;99.90;;;12.29;95.48;102782.09;4974288;28;20519;-76
2021/12/15 03:54:47;;;;;;;57.13;34.83;;;12.00;99.90;;;12.26;95.72;102788.22;4974230;28;20042;-76
2021/12/15 03:57:16;;;;;;;54.90;34.05;;;12.00;99.90;;;12.21;95.91;102776.63;4989449;28;20101;-76
2021/12/15 03:59:45;;;;;;;59.08;34.40;;;12.00;99.90;;;12.23;95.84;102789.94;4974172;28;20458;-77
2021/12/15 04:02:18;;;;;;;52.75;34.38;;;12.00;99.90;;;11.98;95.99;102743.44;4975705;28;20039;-77
2021/12/15 04:04:50;;;;;;;52.22;34.47;;;12.00;99.90;;;12.08;96.07;102765.75;4974226;28;20113;-76
2021/12/15 04:07:21;;;;;;;56.33;34.67;;;12.00;99.90;;;12.19;95.78;102761.53;4974064;28;20043;-76
2021/12/15 04:09:53;;;;;;;52.13;34.25;;;12.00;99.90;;;12.34;95.62;102788.38;4973056;28;20471;-76
2021/12/15 04:12:22;;;;;;;57.55;33.60;;;12.10;99.90;;;12.24;95.62;102762.50;4974093;28;20039;-76
2021/12/15 04:15:06;;;;;;;60.90;35.75;;;12.10;99.90;;;12.37;95.49;102812.28;4988680;28;20464;-76
2021/12/15 04:17:36;;;;;;;54.40;33.85;;;12.10;99.90;;;9.67;95.64;102341.31;4972988;28;20046;-77
2021/12/15 04:20:12;;;;;;;58.03;34.63;;;12.00;99.90;;;11.93;96.13;102768.06;4989227;28;20101;-76
2021/12/15 04:22:41;;;;;;;53.25;34.17;;;11.90;99.90;;;12.20;96.47;102803.13;4973944;28;20045;-77
2021/12/15 04:25:15;;;;;;;58.47;34.47;;;11.90;99.90;;;12.29;96.39;102800.66;4973855;28;20085;-76
2021/12/15 04:27:55;;;;;;;59.78;35.30;;;11.90;99.90;;;12.17;96.30;102782.75;4974695;28;20122;-76
2021/12/15 04:30:26;;;;;;;60.75;35.38;;;12.00;99.90;;;12.33;96.25;102798.06;4993231;23;20146;-71
2021/12/15 04:32:57;;;;;;;61.47;35.25;;;12.00;99.90;;;12.26;96.13;102797.94;5012503;28;20052;-76
2021/12/15 04:35:29;;;;;;;63.53;36.17;;;12.00;99.90;;;12.06;96.23;102767.47;5012915;28;20045;-76
2021/12/15 04:37:57;;;;;;;55.78;35.50;;;11.90;99.90;;;12.35;96.31;102798.13;5013063;28;20049;-76
2021/12/15 04:40:27;;;;;;;60.58;35.63;;;12.00;99.90;;;12.34;96.35;102820.22;5015372;28;20066;-76
2021/12/15 04:42:58;;;;;;;70.32;35.42;;;12.00;99.90;;;12.34;96.28;102789.28;5026538;22;20529;-75
2021/12/15 04:45:29;;;;;;;60.20;34.63;;;12.10;99.90;;;12.44;95.93;102806.25;4997105;28;20109;-77
2021/12/15 04:47:58;;;;;;;51.33;34.50;;;12.10;99.90;;;12.36;95.89;102795.50;4997115;28;20043;-77
2021/12/15 04:50:30;;;;;;;59.15;35.00;;;12.20;99.90;;;12.45;95.93;102802.72;4997362;28;20073;-76
2021/12/15 04:53:02;;;;;;;54.63;34.03;;;12.10;99.90;;;12.32;96.19;102788.34;4997056;28;20060;-77
2021/12/15 04:55:34;;;;;;;57.88;34.65;;;12.20;99.90;;;12.51;95.99;102826.72;4997563;28;20093;-76
2021/12/15 04:58:08;;;;;;;62.25;35.22;;;12.20;99.90;;;12.50;95.58;102798.41;4996952;28;20069;-76
2021/12/15 05:00:42;;;;;;;58.65;33.83;;;12.20;99.90;;;12.46;95.69;102805.44;4996998;28;20437;-76
2021/12/15 05:03:11;;;;;;;56.42;34.25;;;12.20;99.90;;;12.52;95.66;102808.19;4998551;28;20460;-76
2021/12/15 05:05:40;;;;;;;59.38;33.95;;;12.20;99.90;;;12.42;95.53;102806.25;4995726;28;20047;-77
2021/12/15 05:08:10;;;;;;;62.15;33.67;;;12.20;99.90;;;12.38;95.62;102815.00;4996901;28;20048;-77
2021/12/15 05:10:40;;;;;;;60.42;35.08;;;12.10;99.90;;;12.45;95.98;102822.22;4997210;28;20039;-76
2021/12/15 05:13:10;;;;;;;;;;;12.10;99.90;;;12.26;95.73;102782.91;4997688;28;20365;-76
2021/12/15 05:15:39;;;;;;;63.55;34.47;;;12.10;99.90;;;12.42;95.76;102805.34;4996992;28;19972;-76
2021/12/15 05:18:09;;;;;;;67.72;36.08;;;12.10;99.90;;;12.45;95.78;102803.63;5011933;28;20499;-76
2021/12/15 05:20:39;;;;;;;63.67;36.53;;;12.10;99.90;;;12.34;95.64;102804.28;4996568;28;20080;-76
2021/12/15 05:23:08;;;;;;;68.57;37.03;;;12.10;99.90;;;12.38;96.05;102811.44;4996531;28;20097;-76
2021/12/15 05:25:38;;;;;;;68.53;38.38;;;12.10;99.90;;;12.34;96.08;102798.97;4996481;28;20595;-76
2021/12/15 05:28:07;;;;;;;71.20;37.05;;;12.10;99.90;;;12.39;95.85;102814.13;4997045;28;20050;-71
2021/12/15 05:30:36;;;;;;;75.22;38.58;;;12.10;99.90;;;12.44;95.98;102816.88;4996366;28;20416;-71
2021/12/15 05:33:05;;;;;;;77.20;40.15;;;12.10;99.90;;;12.36;95.87;102797.25;4996958;28;20054;-71
2021/12/15 05:35:34;;;;;;;76.28;39.83;;;12.20;99.90;;;12.31;95.94;102810.41;4996362;28;20129;-72
2021/12/15 05:38:06;;;;;;;71.75;38.60;;;12.10;99.90;;;12.44;96.29;102814.22;4996241;28;20488;-75
2021/12/15 05:40:35;;;;;;;79.10;39.50;;;12.10;99.90;;;12.32;96.17;102808.66;4996485;28;20093;-73
2021/12/15 05:43:07;;;;;;;72.10;38.28;;;12.10;99.90;;;12.33;96.59;102816.66;5011904;28;20085;-73
2021/12/15 05:45:40;;;;;;;67.50;37.40;;;12.10;99.90;;;12.30;96.81;102813.06;5015847;28;20069;-72
2021/12/15 05:48:12;;;;;;;69.28;35.40;;;12.00;99.90;;;12.27;97.09;102815.66;4998249;28;20049;-72
2021/12/15 05:50:43;;;;;;;71.68;37.83;;;12.00;99.90;;;12.24;97.05;102811.19;5015175;28;20046;-73
2021/12/15 05:53:13;;;;;;;74.25;36.63;;;11.90;99.90;;;12.27;97.11;102819.19;5015331;28;20136;-72
2021/12/15 05:55:43;;;;;;;68.18;36.47;;;12.00;99.90;;;12.35;97.22;102816.72;5015059;28;20049;-72
2021/12/15 05:58:13;;;;;;;65.82;36.30;;;12.00;99.90;;;12.38;96.83;102819.41;5015541;28;20046;-72
2021/12/15 06:00:44;;;;;;;66.00;35.60;;;12.00;99.90;;;12.42;96.65;102818.59;5015689;28;20050;-72
2021/12/15 06:03:13;;;;;;;69.70;36.20;;;12.10;99.90;;;12.43;96.52;102825.69;5014956;28;20289;-73
2021/12/15 06:05:42;;;;;;;65.95;36.95;;;12.10;99.90;;;12.40;96.37;102818.59;5015197;28;20046;-73
2021/12/15 06:08:11;;;;;;;66.68;35.30;;;12.10;99.90;;;12.37;96.60;102817.59;4997760;28;20468;-72
2021/12/15 06:10:41;;;;;;;65.68;34.72;;;12.10;99.90;;;12.41;96.46;102822.09;5014884;28;20595;-72
2021/12/15 06:13:14;;;;;;;64.85;35.42;;;12.10;99.90;;;12.35;96.34;102809.63;5014388;28;20132;-72
2021/12/15 06:15:45;;;;;;;59.92;35.40;;;12.10;99.90;;;12.40;96.53;102823.00;5014893;28;20049;-72
2021/12/15 06:18:17;;;;;;;68.68;36.35;;;12.10;99.90;;;12.37;96.77;102826.47;5015079;28;20496;-72
2021/12/15 06:20:48;;;;;;;63.58;35.92;;;12.10;99.90;;;12.33;96.93;102837.03;5015090;28;20065;-72
2021/12/15 06:23:19;;;;;;;;;;;12.00;99.90;;;12.35;97.12;102837.94;5015521;28;20041;-72
2021/12/15 06:25:51;;;;;;;60.83;35.25;;;12.10;99.90;;;12.35;96.81;102820.22;5014824;28;19948;-72
2021/12/15 06:28:24;;;;;;;59.80;35.28;;;12.10;99.90;;;12.38;96.88;102833.59;5014892;28;20042;-72
2021/12/15 06:30:53;;;;;;;57.05;34.90;;;12.10;99.90;;;12.37;96.81;102828.22;5014730;28;20072;-73
2021/12/15 06:33:23;;;;;;;59.03;36.40;;;12.10;99.90;;;12.29;96.77;102820.09;4997154;28;20480;-73
2021/12/15 06:35:54;;;;;;;60.87;35.43;;;12.10;99.90;;;12.39;96.56;102842.41;5014288;28;20129;-72
2021/12/15 06:38:25;;;;;;;58.58;35.58;;;12.10;99.90;;;12.34;96.63;102841.44;5014454;28;20299;-73
2021/12/15 06:40:54;;;;;;;;;;;12.10;99.90;;;12.35;97.11;102848.56;5014550;28;20069;-72
2021/12/15 06:43:24;;;;;;;60.70;36.15;;;12.10;99.90;;;12.43;97.02;102846.91;5014264;28;20016;-72
2021/12/15 06:46:06;;;;;;;58.78;35.60;;;12.10;99.90;;;12.34;96.99;102852.06;5014285;28;20065;-72
2021/12/15 06:59:43;;;;;;;56.22;34.90;;;12.10;99.90;;;12.47;96.85;102868.25;5014016;28;20116;-72
2021/12/15 07:02:12;;;;;;;65.35;37.22;;;12.10;99.90;;;12.45;96.68;102858.47;5014115;28;20046;-72
2021/12/15 07:04:41;;;;;;;63.70;36.30;;;12.20;99.90;;;12.48;96.72;102869.16;5012439;28;20041;-73
2021/12/15 07:07:10;;;;;;;65.38;36.90;;;12.20;99.90;;;12.49;96.67;102870.94;5013617;28;20104;-72
2021/12/15 07:09:39;;;;;;;64.03;35.88;;;12.20;99.90;;;12.38;96.91;102868.09;5013231;28;20125;-70
2021/12/15 07:12:10;;;;;;;59.10;35.50;;;12.10;99.90;;;12.38;97.13;102875.16;5013353;28;20042;-72
2021/12/15 07:14:38;;;;;;;58.95;36.03;;;12.10;99.90;;;12.27;97.27;102888.19;4995929;28;20458;-72
2021/12/15 07:17:15;;;;;;;66.75;36.92;;;12.10;99.90;;;12.36;97.29;102872.47;5013642;28;20061;-73
2021/12/15 07:20:04;;;;;;;64.20;36.00;;;12.10;99.90;;;12.39;97.25;102869.88;5013661;28;20053;-71
2021/12/15 07:22:43;;;;;;;64.82;35.97;;;12.10;99.90;;;12.49;97.02;102879.81;5013765;28;20068;-73
2021/12/15 07:25:14;;;;;;;62.78;35.65;;;12.20;99.90;;;12.44;97.06;102880.59;5012287;28;20061;-71
2021/12/15 07:27:43;;;;;;;65.10;37.40;;;12.10;99.90;;;12.48;96.62;102879.78;5013750;28;20100;-71
2021/12/15 07:30:13;;;;;;;60.75;36.35;;;12.20;99.90;;;12.48;96.87;102890.41;5013402;28;20065;-72
2021/12/15 07:32:44;;;;;;;62.03;37.00;;;12.20;99.90;;;12.47;96.84;102888.59;5013454;28;20434;-72
2021/12/15 07:35:18;;;;;;;59.42;34.78;;;12.20;99.90;;;12.53;96.83;102884.31;5013258;28;20053;-73
2021/12/15 07:37:47;;;;;;;63.65;36.15;;;12.20;99.90;;;12.50;96.53;102886.03;5013212;28;20042;-73
2021/12/15 07:40:20;;;;;;;62.45;36.17;;;12.20;99.90;;;11.73;96.49;102755.31;5013304;28;20121;-70
2021/12/15 07:43:04;;;;;;;61.40;33.83;;;12.20;99.90;;;12.43;97.11;102879.69;5013441;28;20050;-74
2021/12/15 07:45:37;;;;;;;65.22;36.22;;;12.10;99.90;;;12.46;96.96;102889.47;5013209;28;20491;-73
2021/12/15 07:48:10;;;;;;;63.95;35.88;;;12.20;99.90;;;12.39;96.95;102883.13;5012941;28;20042;-70
2021/12/15 07:50:43;;;;;;;65.63;36.58;;;12.10;99.90;;;12.22;96.95;102844.75;5013092;28;20045;-71
2021/12/15 07:53:13;;;;;;;61.70;34.88;;;12.10;99.90;;;12.41;96.84;102886.72;5012903;28;20042;-71
2021/12/15 07:55:42;;;;;;;60.23;35.57;;;12.10;99.90;;;12.44;96.92;102885.88;5012547;28;20444;-70
2021/12/15 07:58:11;;;;;;;56.28;33.60;;;12.10;99.90;;;12.47;96.53;102875.31;5012659;28;20044;-73
2021/12/15 08:00:44;;;;;;;64.20;34.65;;;12.20;99.90;;;12.35;96.58;102864.47;5013004;28;20057;-72
2021/12/15 08:03:16;;;;;;;58.33;33.65;;;12.20;99.90;;;12.47;96.14;102880.63;5011640;28;20561;-72
2021/12/15 08:05:47;;;;;;;60.05;33.50;;;12.20;99.90;;;12.51;96.35;102898.41;5012903;28;20049;-72
2021/12/15 08:08:16;;;;;;;52.92;32.65;;;12.20;99.90;;;12.50;96.21;102896.63;5011867;28;20115;-71
2021/12/15 08:10:47;;;;;;;54.25;32.45;;;12.20;99.90;;;12.47;96.24;102881.53;5012815;28;20045;-71
2021/12/15 08:13:17;;;;;;;57.47;32.08;;;12.20;99.90;;;12.52;96.23;102894.91;5012660;28;20104;-72
2021/12/15 08:15:46;;;;;;;53.20;31.75;;;12.20;99.90;;;12.50;96.37;102886.03;5012160;28;20100;-72
2021/12/15 08:18:16;;;;;;;56.67;31.90;;;12.20;99.90;;;11.83;96.29;102771.44;5012411;28;20048;-72
2021/12/15 08:20:45;;;;;;;53.20;30.77;;;12.20;99.90;;;12.58;96.24;102903.00;5012423;28;20073;-70
2021/12/15 08:23:14;;;;;;;55.47;31.83;;;12.30;99.90;;;11.87;96.05;102768.84;5012255;28;20437;-69
2021/12/15 08:25:43;;;;;;;56.15;30.77;;;12.30;99.90;;;12.59;96.00;102902.13;5012591;28;20396;-69
2021/12/15 08:28:12;;;;;;;52.70;29.05;;;12.30;99.90;;;12.51;96.11;102882.47;5012095;28;20104;-69
2021/12/15 08:30:43;;;;;;;52.08;28.75;;;12.30;99.90;;;12.63;95.67;102902.22;5012517;28;20392;-68
2021/12/15 08:33:18;;;;;;;51.72;29.85;;;12.30;99.90;;;12.67;95.88;102908.47;5012778;28;20042;-68
2021/12/15 08:35:53;;;;;;;45.75;28.88;;;12.30;99.90;;;12.66;95.54;102904.03;5011611;28;20463;-69
2021/12/15 08:38:23;;;;;;;46.58;28.10;;;12.40;99.90;;;12.64;95.51;102888.06;5012898;28;20048;-69
2021/12/15 08:40:52;;;;;;;48.88;27.63;;;12.40;99.90;;;12.70;94.93;102900.56;5012686;28;20045;-69
2021/12/15 08:43:24;;;;;;;49.38;28.27;;;12.40;99.90;;;12.55;95.30;102882.59;5012069;28;20062;-70
2021/12/15 08:45:58;;;;;;;51.40;28.05;;;12.40;99.90;;;12.74;95.11;102913.03;5012355;28;20113;-70
2021/12/15 08:48:28;;;;;;;49.58;27.13;;;12.40;99.90;;;12.64;95.02;102911.06;4994910;28;20041;-70
2021/12/15 08:50:57;;;;;;;48.40;26.35;;;12.40;99.90;;;12.77;94.84;102922.84;5012413;28;20042;-70
2021/12/15 08:53:27;;;;;;;42.20;24.95;;;12.40;99.90;;;12.37;94.39;102846.78;5012201;28;20076;-71
2021/12/15 08:55:56;;;;;;;43.28;25.67;;;12.50;99.90;;;12.79;94.25;102915.78;5012267;28;20092;-70
2021/12/15 08:58:26;;;;;;;45.58;26.33;;;12.50;99.90;;;12.72;94.06;102924.50;5012526;28;20042;-70
2021/12/15 09:00:58;;;;;;;44.65;25.73;;;12.50;99.90;;;12.74;94.26;102922.78;5011585;28;20072;-71
2021/12/15 09:03:30;;;;;;;42.60;26.65;;;12.40;99.90;;;12.66;94.20;102912.88;5011491;28;20104;-71
2021/12/15 09:06:01;;;;;;;36.35;23.00;;;12.50;99.90;;;12.73;94.05;102926.28;5012750;28;20046;-71
2021/12/15 09:08:30;;;;;;;41.10;24.13;;;12.40;99.90;;;12.78;93.98;102936.13;5013164;28;20049;-71
2021/12/15 09:11:02;;;;;;;41.05;23.92;;;12.40;99.90;;;12.74;94.27;102928.97;5012241;28;20141;-70
2021/12/15 09:13:32;;;;;;;38.83;24.38;;;12.40;99.90;;;12.78;93.84;102938.78;5011031;28;20499;-70
2021/12/15 09:16:08;;;;;;;42.08;25.35;;;12.50;99.90;;;12.81;93.84;102935.31;5011861;28;20499;-71
2021/12/15 09:18:40;;;;;;;37.47;24.63;;;12.50;99.90;;;12.77;93.32;102931.69;5012219;28;20060;-71
2021/12/15 09:21:20;;;;;;;42.63;25.00;;;12.50;99.90;;;12.88;93.36;102938.09;4995326;28;20046;-70
2021/12/15 09:23:49;;;;;;;38.30;23.85;;;12.60;99.90;;;12.84;93.19;102936.25;5012032;28;20045;-70
2021/12/15 09:26:20;;;;;;;39.17;23.60;;;12.60;99.90;;;12.87;93.13;102938.09;5012297;28;20034;-71
2021/12/15 09:28:51;;;;;;;41.50;24.50;;;12.60;99.90;;;12.40;93.02;102854.84;5015615;28;20277;-70
2021/12/15 09:31:20;;;;;;;;;;;12.60;99.90;;;12.74;92.92;102923.66;5016134;28;20038;-70
2021/12/15 09:33:53;;;;;;;37.88;23.70;;;12.60;99.90;;;12.94;93.10;102953.25;5014353;28;19921;-71
2021/12/15 09:36:25;;;;;;;37.00;23.08;;;12.60;99.90;;;12.95;92.92;102966.56;4997902;28;20042;-71
2021/12/15 09:39:00;;;;;;;44.15;25.40;;;12.70;99.90;;;12.92;92.78;102965.63;5015263;28;20038;-71
2021/12/15 09:41:29;;;;;;;36.75;23.05;;;12.60;99.90;;;12.90;92.54;102957.63;5015047;28;20046;-70
2021/12/15 09:44:05;;;;;;;40.78;23.70;;;12.70;99.90;;;12.82;92.77;102951.25;5015004;28;20042;-71
2021/12/15 09:46:41;;;;;;;37.95;24.02;;;12.70;99.90;;;12.91;92.61;102970.03;5014837;28;20053;-71
2021/12/15 09:57:48;;;;;;;31.77;23.08;;;12.50;99.90;;;12.71;93.31;102982.03;4997537;28;20089;-71
2021/12/15 10:03:21;;;;;;;39.63;24.17;;;12.40;99.90;;;12.72;93.82;102980.28;4960170;28;20059;-71
2021/12/15 10:05:58;;;;;;;36.30;22.88;;;12.40;99.90;;;12.52;93.75;102958.63;5014791;28;20041;-71
2021/12/15 10:19:48;;;;;;;31.58;16.42;;;12.60;99.90;;;12.81;91.84;102980.47;5015084;28;20038;-71
2021/12/15 10:22:33;;;;;;;29.55;15.93;;;12.60;99.90;;;12.85;91.40;102996.50;5015255;28;20046;-70
2021/12/15 10:25:11;;;;;;;26.42;14.32;;;12.60;99.90;;;12.80;91.25;103002.56;5014644;28;20054;-71
2021/12/15 10:27:45;;;;;;;26.75;13.93;;;12.60;99.90;;;12.92;90.97;102982.47;5013775;28;20049;-70
2021/12/15 10:30:24;;;;;;;28.23;13.30;;;12.70;99.90;;;12.27;90.41;102863.44;5015194;28;20436;-71
2021/12/15 10:33:00;;;;;;;26.38;13.40;;;12.70;99.90;;;12.84;90.14;103000.00;5014939;28;20052;-70
2021/12/15 10:35:33;;;;;;;30.42;13.60;;;12.60;99.90;;;12.78;90.46;102991.00;5013756;28;20095;-70
2021/12/15 10:38:28;;;;;;;25.30;13.07;;;12.50;99.90;;;12.47;90.21;102920.44;4997002;28;20485;-70
2021/12/15 10:41:03;;;;;;;23.35;13.45;;;12.60;99.90;;;12.80;90.02;102987.53;5012089;28;20058;-71
2021/12/15 10:43:37;;;;;;;22.48;13.25;;;12.60;99.90;;;12.78;90.12;102994.56;5014988;28;20049;-71
2021/12/15 10:46:12;;;;;;;26.55;13.15;;;12.50;99.90;;;12.79;90.10;102992.81;5015096;28;20038;-71
2021/12/15 10:48:54;;;;;;;29.73;14.38;;;12.50;99.90;;;12.77;89.63;102995.44;4997193;28;20152;-71
2021/12/15 10:51:38;;;;;;;28.77;12.35;;;12.50;99.90;;;12.75;89.70;103001.56;5014464;28;20042;-71
2021/12/15 10:54:12;;;;;;;23.85;13.20;;;12.50;99.90;;;12.79;89.92;102991.06;4997103;28;20042;-71
2021/12/15 10:56:52;;;;;;;28.65;13.23;;;12.50;99.90;;;12.88;89.22;102995.66;5016267;28;20050;-71
2021/12/15 10:59:22;;;;;;;27.30;13.02;;;12.50;99.90;;;12.28;88.93;102886.44;5014649;28;20046;-70
2021/12/15 11:01:59;;;;;;;23.42;12.80;;;12.60;99.90;;;13.01;88.83;102995.91;5014366;28;20050;-70
2021/12/15 11:04:43;;;;;;;24.60;13.60;;;12.70;99.90;;;12.94;88.97;102994.03;4996905;28;20042;-70
2021/12/15 11:07:31;;;;;;;26.80;15.05;;;12.70;99.90;;;12.56;88.71;102908.25;5013188;28;20053;-70
2021/12/15 11:10:08;;;;;;;28.50;15.40;;;12.70;99.90;;;13.08;88.77;103015.59;5014135;28;20046;-71
2021/12/15 11:12:40;;;;;;;31.25;16.27;;;12.80;99.90;;;13.06;88.53;102993.41;5014118;28;20064;-71
2021/12/15 11:15:13;;;;;;;27.80;16.52;;;12.80;99.90;;;12.98;88.78;102979.94;5014382;28;20050;-71
2021/12/15 11:17:45;;;;;;;32.70;17.08;;;12.80;99.90;;;13.21;88.57;103001.66;5014232;28;20109;-70
2021/12/15 11:20:19;;;;;;;32.40;16.98;;;12.90;99.90;;;13.11;88.61;103003.25;5014386;28;20439;-71
2021/12/15 11:23:01;;;;;;;30.10;16.83;;;12.80;99.90;;;13.11;88.69;102989.97;5015678;28;20049;-71
2021/12/15 11:25:40;;;;;;;31.00;17.55;;;12.80;99.90;;;13.07;88.68;102985.44;5014457;28;20041;-71
2021/12/15 11:28:19;;;;;;;31.77;17.35;;;12.70;99.90;;;13.07;88.66;102996.06;5014088;28;20046;-71